KRNC/RNC METAR and TAF weather

Enter ICAO airport designator
Station Type Date Time Source
KRNC METAR 2020/01/18 15:55 UTC NOAA

KRNC 181555Z AUTO 20009G15KT 160V220 9SM BKN022 OVC027 09/07 A3015 RMK A01 P0006


Station Type Date Time Source
KRNC Decoded METAR 2020/01/18 15:55 UTC NOAA

Station name not available
Jan 18, 2020 - 10:55 AM EST / 2020.01.18 1555 UTC
Wind: from the SSW (200 degrees) at 10 MPH (9 KT) gusting to 17 MPH (15 KT) (direction variable):0
Visibility: 9 mile(s):0
Sky conditions: overcast
Precipitation last hour: 0.06 inches
Temperature: 48 F (9 C)
Dew Point: 44 F (7 C)
Relative Humidity: 87%
Pressure (altimeter): 30.15 in. Hg (1020 hPa)
ob: KRNC 181555Z AUTO 20009G15KT 160V220 9SM BKN022 OVC027 09/07 A3015 RMK A01 P0006
cycle: 16

Station Type Date Time Source
KRNC TAF 2009/08/31 19:45 UTC NOAA

METAR KRNC 311945Z AUTO 35008KT 10SM CLR 25/12 A3011
RMK AO1 T02500116 $

Example: see airport list